General Aviation Weather

Text Reports

Enter one or more of the following location identifiers separated by a space:

Zip Code, Four-Character ICAO or Three-Character IATA airport codes.

METAR - Aviation Routine Weather Report
PADE - Deering, Alaska
Updated at 4:53 PM GMT on October 23, 2014 (8:53 AM AKDT):
METAR PADE 231653Z AUTO 11009KT 10SM OVC021 M03/M07 A2976 RMK SLP077 T10281067 TSNO VIA AUTODIAL
TAF - Terminal Area Forecast
PADE - Deering, Alaska
Updated at 4:53 PM GMT on October 23, 2014 (8:53 AM AKDT):
No TAF is currently available for this location.
Decoded:
No decoded TAF is available.
PIREP - Pilot Weather Report
PADE - Deering, Alaska
Updated at 4:53 PM GMT on October 23, 2014 (8:53 AM AKDT):
No PIREP is currently available for this location.
AIRMET - Airmens Meteorological Information
PADE - Deering, Alaska
Updated at 4:53 PM GMT on October 23, 2014 (8:53 AM AKDT):
No AIRMET is currently available for this location.
SIGMET - Significant Meteorological Information
PADE - Deering, Alaska
Updated at 4:53 PM GMT on October 23, 2014 (8:53 AM AKDT):
No SIGMET is currently available for this location.
NOTAM - Notice to Airmen
PADE - Deering, Alaska
Updated at 4:53 PM GMT on October 23, 2014 (8:53 AM AKDT):
No NOTAM is currently available for this location.
Forecast Area
PADE - Deering, Alaska
Updated at 4:53 PM GMT on October 23, 2014 (8:53 AM AKDT):
No NOTAM is currently available for this location.
Aviation Weather Maps